Flight Track Log - Related Links

Times and Time Zones

All times are in EDT time to prevent confusion due to time zone crossing. See the SWA543 flight status page for this flight to view local times or setup timezone preferences in your user account.

Time Position Orientation Groundspeed Altitude Reporting Facility
EDT Latitude Longitude Course Direction KTS MPH feet Rate Location/Type
Sun 08:12:54 AM 32.8333 -96.8167 168° South 173 199 1,600  Level Dallas / Fort Worth TRACON
Sun 08:14:06 AM 32.7667 -96.8000 168° South 246 283 4,300 2,500 Climbing Dallas / Fort Worth TRACON
Sun 08:15:06 AM 32.7000 -96.8333 203° Southwest 280 322 7,100 2,950 Climbing Dallas / Fort Worth TRACON
Sun 08:16:06 AM 32.6667 -96.9000 239° Southwest 314 361 10,200 2,424 Climbing Dallas / Fort Worth TRACON
Sun 08:18:29 AM 32.7267 -97.1639 285° West 380 437 15,300 2,257 Climbing Fort Worth Center
Sun 08:19:28 AM 32.8019 -97.2800 308° West 402 463 17,800 2,471 Climbing Fort Worth Center
Sun 08:20:28 AM 32.8522 -97.3911 298° West 420 483 20,200 2,250 Climbing Fort Worth Center
Sun 08:21:28 AM 32.9083 -97.5322 295° West 425 489 22,300 2,300 Climbing Fort Worth Center
Sun 08:22:28 AM 32.9583 -97.6658 294° West 432 497 24,800 1,950 Climbing Fort Worth Center
Sun 08:23:28 AM 33.0103 -97.7950 296° West 432 497 26,200 1,650 Climbing Fort Worth Center
Sun 08:24:28 AM 33.0597 -97.9314 293° West 442 509 28,100 1,900 Climbing Fort Worth Center
Sun 08:25:28 AM 33.0969 -98.0308 294° West 437 503 30,000 1,700 Climbing Fort Worth Center
Sun 08:26:28 AM 33.1506 -98.1703 295° West 426 490 31,500 1,400 Climbing Fort Worth Center
Sun 08:27:28 AM 33.1956 -98.2922 294° West 421 484 32,800 1,388 Climbing Fort Worth Center
Sun 08:28:29 AM 33.2614 -98.4047 305° West 416 479 34,300 1,300 Climbing Fort Worth Center
Sun 08:29:28 AM 33.3400 -98.5200 309° West 408 470 35,400 857 Climbing Fort Worth Center
Sun 08:30:28 AM 33.4078 -98.6253 308° West 408 470 36,000 300 Climbing Fort Worth Center
Sun 08:31:28 AM 33.4778 -98.7308 309° West 408 470 36,000  Level Fort Worth Center
Sun 08:32:28 AM 33.5475 -98.8417 307° West 413 475 36,000  Level Fort Worth Center
Sun 08:33:28 AM 33.6108 -98.9425 307° West 422 486 36,000  Level Fort Worth Center
Sun 08:34:28 AM 33.6783 -99.0483 307° West 417 480 36,000  Level Fort Worth Center
Sun 08:35:28 AM 33.7519 -99.1647 307° West 406 467 36,000  Level Fort Worth Center
Sun 08:36:28 AM 33.8192 -99.2736 307° West 406 467 36,000  Level Fort Worth Center
Sun 08:37:28 AM 33.8867 -99.3800 307° West 406 467 36,000  Level Fort Worth Center
Sun 08:38:28 AM 33.9536 -99.4892 306° West 406 467 36,000  Level Fort Worth Center
Sun 08:39:28 AM 34.0228 -99.6011 307° West 417 480 36,000  Level Fort Worth Center
Sun 08:40:28 AM 34.0897 -99.7056 308° West 417 480 36,000  Level Fort Worth Center
Sun 08:41:28 AM 34.1586 -99.8153 307° West 417 480 36,000  Level Fort Worth Center
Sun 08:42:28 AM 34.2253 -99.9278 306° West 417 480 36,000  Level Fort Worth Center
Sun 08:43:28 AM 34.2919 -100.0353 307° West 417 480 36,000  Level Fort Worth Center
Sun 08:45:05 AM 34.3878 -100.1911 307° West 409 471 36,000  Level Albuquerque Center
Sun 08:46:04 AM 34.4544 -100.3014 306° West 408 470 36,000 -1,884 Level Albuquerque Center
Sun 08:47:06 AM 34.5367 -100.4353 307° West 411 473 32,200 -3,443 Descending Albuquerque Center
Sun 08:48:06 AM 34.6053 -100.5478 307° West 415 478 29,000 -2,950 Descending Albuquerque Center
Sun 08:49:06 AM 34.6722 -100.6575 307° West 409 471 26,300 -3,025 Descending Albuquerque Center
Sun 08:50:07 AM 34.7364 -100.7672 305° West 401 461 22,900 -3,098 Descending Albuquerque Center
Sun 08:51:08 AM 34.8025 -100.8758 307° West 401 461 20,000 -2,777 Descending Albuquerque Center
Sun 08:52:08 AM 34.8664 -100.9839 306° West 396 456 17,300 -2,797 Descending Albuquerque Center
Sun 08:53:06 AM 34.9294 -101.0886 306° West 389 448 14,500 -2,678 Descending Albuquerque Center
Sun 08:54:09 AM 34.9917 -101.1928 306° West 382 440 11,900 -2,132 Descending Albuquerque Center
Sun 08:55:07 AM 35.0506 -101.2925 306° West 371 427 10,200 -1,475 Descending Albuquerque Center
Sun 08:56:07 AM 35.1011 -101.3786 306° West 327 376 9,000 -934 Descending Albuquerque Center
Sun 08:57:09 AM 35.1481 -101.4575 306° West 297 342 8,300 -1,171 Descending Albuquerque Center
Sun 08:58:10 AM 35.1908 -101.5306 306° West 272 313 6,600 -1,109 Descending Albuquerque Center
Sun 08:59:08 AM 35.2317 -101.6000 306° West 264 304 6,100 -700 Descending Albuquerque Center
Sun 09:00:10 AM 35.2531 -101.6497 298° West 206 237 5,200 -1,113 Descending Albuquerque Center
Sun 09:01:12 AM 35.2386 -101.6903 246° West 150 173 3,800 -1,355 Descending Albuquerque Center

Login

Don't have an account? Register now (free) for customized features, flight alerts, and more!